This is the latest recevied weather packets stored in our database for station/object EA2RCU-15. If no packets are shown the sender has not sent any weather packets the latest 10 day(s).
| Time | Temp. | Humidity | Pressure | Rain* | Wind** | Luminosity | Snow |
|---|---|---|---|---|---|---|---|
| 1777374006 | 22.78° C | 39% | 997 hPa | 0 mm | - | - | - |
| 1777373706 | 22.78° C | 39% | 998 hPa | 0 mm | - | - | - |
| 1777373405 | 22.78° C | 38% | 998 hPa | 0 mm | - | - | - |
| 1777373105 | 23.33° C | 37% | 998 hPa | 0 mm | - | - | - |
| 1777372806 | 23.89° C | 37% | 998 hPa | 0 mm | - | - | - |
| 1777372505 | 23.89° C | 37% | 998 hPa | 0 mm | - | - | - |
| 1777372206 | 23.89° C | 36% | 998 hPa | 0 mm | - | - | - |
| 1777371906 | 23.89° C | 38% | 998 hPa | 0 mm | - | - | - |
| 1777371605 | 23.33° C | 39% | 998 hPa | 0 mm | - | - | - |
| 1777371306 | 22.78° C | 40% | 998 hPa | 0 mm | - | - | - |
| 1777371005 | 22.78° C | 40% | 998 hPa | 0 mm | - | - | - |
| 1777370705 | 22.78° C | 42% | 998 hPa | 0 mm | - | - | - |
| 1777370405 | 22.22° C | 41% | 998 hPa | 0 mm | - | - | - |
| 1777369806 | 21.67° C | 45% | 997 hPa | 0 mm | - | - | - |
| 1777369505 | 21.11° C | 47% | 997 hPa | 0 mm | - | - | - |
| 1777369206 | 21.11° C | 48% | 998 hPa | 0 mm | - | - | - |
| 1777368906 | 20.56° C | 49% | 998 hPa | 0 mm | - | - | - |
| 1777368605 | 20.56° C | 49% | 998 hPa | 0 mm | - | - | - |
| 1777368305 | 21.11° C | 48% | 998 hPa | 0 mm | - | - | - |
| 1777368006 | 21.11° C | 50% | 998 hPa | 0 mm | - | - | - |
| 1777367705 | 20.56° C | 52% | 998 hPa | 0 mm | - | - | - |
| 1777367405 | 20.56° C | 53% | 998 hPa | 0 mm | - | - | - |
| 1777367105 | 20.56° C | 55% | 998 hPa | 0 mm | - | - | - |
| 1777366806 | 20° C | 58% | 998 hPa | 0 mm | - | - | - |
| 1777366506 | 20° C | 59% | 998 hPa | 0 mm | - | - | - |
* Rain latest hour (hover to see other rain measurements)
** Current wind speed in m/s (hover to see current wind gust speed)